sensor_id;sensor_type;location;lat;lon;timestamp;temperature;humidity
54431;DHT22;40342;52.998;5.862;2023-02-03T00:00:19;8.20;99.90
54431;DHT22;40342;52.998;5.862;2023-02-03T00:02:45;8.20;99.90
54431;DHT22;40342;52.998;5.862;2023-02-03T00:05:10;8.20;99.90
54431;DHT22;40342;52.998;5.862;2023-02-03T00:07:37;8.10;99.90
54431;DHT22;40342;52.998;5.862;2023-02-03T00:10:04;8.10;99.90
54431;DHT22;40342;52.998;5.862;2023-02-03T00:12:30;8.10;99.90
54431;DHT22;40342;52.998;5.862;2023-02-03T00:14:55;8.10;99.90
54431;DHT22;40342;52.998;5.862;2023-02-03T00:17:21;8.10;99.90
54431;DHT22;40342;52.998;5.862;2023-02-03T00:19:46;8.10;99.90
54431;DHT22;40342;52.998;5.862;2023-02-03T00:22:12;8.10;99.90
54431;DHT22;40342;52.998;5.862;2023-02-03T00:24:38;8.10;99.90
54431;DHT22;40342;52.998;5.862;2023-02-03T00:27:03;8.00;99.90
54431;DHT22;40342;52.998;5.862;2023-02-03T00:29:29;8.10;99.90
54431;DHT22;40342;52.998;5.862;2023-02-03T00:31:54;8.10;99.90
54431;DHT22;40342;52.998;5.862;2023-02-03T00:34:20;8.10;99.90
54431;DHT22;40342;52.998;5.862;2023-02-03T00:36:46;8.00;99.90
54431;DHT22;40342;52.998;5.862;2023-02-03T00:39:16;8.10;99.90
54431;DHT22;40342;52.998;5.862;2023-02-03T00:41:41;8.10;99.90
54431;DHT22;40342;52.998;5.862;2023-02-03T00:44:07;8.10;99.90
54431;DHT22;40342;52.998;5.862;2023-02-03T00:46:32;8.10;99.90
54431;DHT22;40342;52.998;5.862;2023-02-03T00:49:01;8.10;99.90
54431;DHT22;40342;52.998;5.862;2023-02-03T00:51:26;8.10;99.90
54431;DHT22;40342;52.998;5.862;2023-02-03T00:53:52;8.10;99.90
54431;DHT22;40342;52.998;5.862;2023-02-03T00:56:17;8.00;99.90
54431;DHT22;40342;52.998;5.862;2023-02-03T00:58:43;8.00;99.90
54431;DHT22;40342;52.998;5.862;2023-02-03T01:01:09;8.00;99.90
54431;DHT22;40342;52.998;5.862;2023-02-03T01:03:34;8.00;99.90
54431;DHT22;40342;52.998;5.862;2023-02-03T01:06:16;8.00;99.90
54431;DHT22;40342;52.998;5.862;2023-02-03T01:08:42;8.00;99.90
54431;DHT22;40342;52.998;5.862;2023-02-03T01:11:10;8.00;99.90
54431;DHT22;40342;52.998;5.862;2023-02-03T01:13:36;8.00;99.90
54431;DHT22;40342;52.998;5.862;2023-02-03T01:16:05;8.00;99.90
54431;DHT22;40342;52.998;5.862;2023-02-03T01:18:31;8.00;99.90
54431;DHT22;40342;52.998;5.862;2023-02-03T01:20:56;8.00;99.90
54431;DHT22;40342;52.998;5.862;2023-02-03T01:23:22;8.00;99.90
54431;DHT22;40342;52.998;5.862;2023-02-03T01:25:47;8.00;99.90
54431;DHT22;40342;52.998;5.862;2023-02-03T01:28:13;8.10;99.90
54431;DHT22;40342;52.998;5.862;2023-02-03T01:30:39;8.10;99.90
54431;DHT22;40342;52.998;5.862;2023-02-03T01:33:04;8.10;99.90
54431;DHT22;40342;52.998;5.862;2023-02-03T01:35:30;8.10;99.90
54431;DHT22;40342;52.998;5.862;2023-02-03T01:37:55;8.10;99.90
54431;DHT22;40342;52.998;5.862;2023-02-03T01:40:21;8.10;99.90
54431;DHT22;40342;52.998;5.862;2023-02-03T01:42:46;8.10;99.90
54431;DHT22;40342;52.998;5.862;2023-02-03T01:45:12;8.10;99.90
54431;DHT22;40342;52.998;5.862;2023-02-03T01:47:57;8.10;99.90
54431;DHT22;40342;52.998;5.862;2023-02-03T01:50:29;8.00;99.90
54431;DHT22;40342;52.998;5.862;2023-02-03T01:52:59;8.10;99.90
54431;DHT22;40342;52.998;5.862;2023-02-03T01:55:32;8.10;99.90
54431;DHT22;40342;52.998;5.862;2023-02-03T01:58:06;8.10;99.90
54431;DHT22;40342;52.998;5.862;2023-02-03T02:00:33;8.10;99.90
54431;DHT22;40342;52.998;5.862;2023-02-03T02:02:59;8.00;99.90
54431;DHT22;40342;52.998;5.862;2023-02-03T02:05:31;8.00;99.90
54431;DHT22;40342;52.998;5.862;2023-02-03T02:07:59;8.00;99.90
54431;DHT22;40342;52.998;5.862;2023-02-03T02:10:28;8.00;99.90
54431;DHT22;40342;52.998;5.862;2023-02-03T02:12:57;8.00;99.90
54431;DHT22;40342;52.998;5.862;2023-02-03T02:16:15;8.00;99.90
54431;DHT22;40342;52.998;5.862;2023-02-03T02:34:54;8.00;99.90
54431;DHT22;40342;52.998;5.862;2023-02-03T02:40:18;8.00;99.90
54431;DHT22;40342;52.998;5.862;2023-02-03T02:42:59;8.10;99.90
54431;DHT22;40342;52.998;5.862;2023-02-03T02:45:35;8.00;99.90
54431;DHT22;40342;52.998;5.862;2023-02-03T02:48:30;8.10;99.90
54431;DHT22;40342;52.998;5.862;2023-02-03T02:50:57;8.00;99.90
54431;DHT22;40342;52.998;5.862;2023-02-03T02:53:27;8.00;99.90
54431;DHT22;40342;52.998;5.862;2023-02-03T02:55:54;8.00;99.90
54431;DHT22;40342;52.998;5.862;2023-02-03T02:58:22;8.00;99.90
54431;DHT22;40342;52.998;5.862;2023-02-03T03:00:49;8.00;99.90
54431;DHT22;40342;52.998;5.862;2023-02-03T03:03:17;8.00;99.90
54431;DHT22;40342;52.998;5.862;2023-02-03T03:06:47;8.00;99.90
54431;DHT22;40342;52.998;5.862;2023-02-03T03:11:16;8.00;99.90
54431;DHT22;40342;52.998;5.862;2023-02-03T03:13:51;8.00;99.90
54431;DHT22;40342;52.998;5.862;2023-02-03T03:16:21;8.00;99.90
54431;DHT22;40342;52.998;5.862;2023-02-03T03:19:07;8.00;99.90
54431;DHT22;40342;52.998;5.862;2023-02-03T03:21:39;8.00;99.90
54431;DHT22;40342;52.998;5.862;2023-02-03T03:24:09;8.00;99.90
54431;DHT22;40342;52.998;5.862;2023-02-03T03:26:54;8.00;99.90
54431;DHT22;40342;52.998;5.862;2023-02-03T03:29:36;8.00;99.90
54431;DHT22;40342;52.998;5.862;2023-02-03T03:32:04;8.00;99.90
54431;DHT22;40342;52.998;5.862;2023-02-03T03:34:31;8.10;99.90
54431;DHT22;40342;52.998;5.862;2023-02-03T03:39:55;8.10;99.90
54431;DHT22;40342;52.998;5.862;2023-02-03T03:42:58;8.10;99.90
54431;DHT22;40342;52.998;5.862;2023-02-03T03:45:37;8.00;99.90
54431;DHT22;40342;52.998;5.862;2023-02-03T03:51:08;8.10;99.90
54431;DHT22;40342;52.998;5.862;2023-02-03T03:53:38;8.00;99.90
54431;DHT22;40342;52.998;5.862;2023-02-03T03:56:05;8.00;99.90
54431;DHT22;40342;52.998;5.862;2023-02-03T03:58:35;8.00;99.90
54431;DHT22;40342;52.998;5.862;2023-02-03T04:01:05;8.00;99.90
54431;DHT22;40342;52.998;5.862;2023-02-03T04:03:38;8.00;99.90
54431;DHT22;40342;52.998;5.862;2023-02-03T04:06:06;8.00;99.90
54431;DHT22;40342;52.998;5.862;2023-02-03T04:08:31;8.00;99.90
54431;DHT22;40342;52.998;5.862;2023-02-03T04:10:57;8.00;99.90
54431;DHT22;40342;52.998;5.862;2023-02-03T04:13:22;7.90;99.90
54431;DHT22;40342;52.998;5.862;2023-02-03T04:15:48;7.90;99.90
54431;DHT22;40342;52.998;5.862;2023-02-03T04:18:15;7.90;99.90
54431;DHT22;40342;52.998;5.862;2023-02-03T04:20:41;7.90;99.90
54431;DHT22;40342;52.998;5.862;2023-02-03T04:23:07;7.80;99.90
54431;DHT22;40342;52.998;5.862;2023-02-03T04:25:33;7.80;99.90
54431;DHT22;40342;52.998;5.862;2023-02-03T04:27:58;7.80;99.90
54431;DHT22;40342;52.998;5.862;2023-02-03T04:30:25;7.80;99.90
54431;DHT22;40342;52.998;5.862;2023-02-03T04:32:50;7.80;99.90
54431;DHT22;40342;52.998;5.862;2023-02-03T04:35:17;7.80;99.90
54431;DHT22;40342;52.998;5.862;2023-02-03T04:37:43;7.80;99.90
54431;DHT22;40342;52.998;5.862;2023-02-03T04:40:09;7.70;99.90
54431;DHT22;40342;52.998;5.862;2023-02-03T04:42:39;7.70;99.90
54431;DHT22;40342;52.998;5.862;2023-02-03T04:45:06;7.70;99.90
54431;DHT22;40342;52.998;5.862;2023-02-03T04:47:32;7.70;99.90
54431;DHT22;40342;52.998;5.862;2023-02-03T04:49:58;7.70;99.90
54431;DHT22;40342;52.998;5.862;2023-02-03T04:52:23;7.70;99.90
54431;DHT22;40342;52.998;5.862;2023-02-03T04:54:49;7.70;99.90
54431;DHT22;40342;52.998;5.862;2023-02-03T04:57:14;7.70;99.90
54431;DHT22;40342;52.998;5.862;2023-02-03T04:59:40;7.70;99.90
54431;DHT22;40342;52.998;5.862;2023-02-03T05:02:05;7.70;99.90
54431;DHT22;40342;52.998;5.862;2023-02-03T05:04:32;7.70;99.90
54431;DHT22;40342;52.998;5.862;2023-02-03T05:06:58;7.80;99.90
54431;DHT22;40342;52.998;5.862;2023-02-03T05:09:24;7.80;99.90
54431;DHT22;40342;52.998;5.862;2023-02-03T05:11:49;7.80;99.90
54431;DHT22;40342;52.998;5.862;2023-02-03T05:14:15;7.90;99.90
54431;DHT22;40342;52.998;5.862;2023-02-03T05:16:40;7.90;99.90
54431;DHT22;40342;52.998;5.862;2023-02-03T05:19:06;8.00;99.90
54431;DHT22;40342;52.998;5.862;2023-02-03T05:21:33;8.00;99.90
54431;DHT22;40342;52.998;5.862;2023-02-03T05:23:59;8.00;99.90
54431;DHT22;40342;52.998;5.862;2023-02-03T05:26:24;8.00;99.90
54431;DHT22;40342;52.998;5.862;2023-02-03T05:28:50;8.00;99.90
54431;DHT22;40342;52.998;5.862;2023-02-03T05:31:16;8.00;99.90
54431;DHT22;40342;52.998;5.862;2023-02-03T05:33:41;8.10;99.90
54431;DHT22;40342;52.998;5.862;2023-02-03T05:36:07;8.10;99.90
54431;DHT22;40342;52.998;5.862;2023-02-03T05:38:33;8.10;99.90
54431;DHT22;40342;52.998;5.862;2023-02-03T05:40:59;8.10;99.90
54431;DHT22;40342;52.998;5.862;2023-02-03T05:43:43;8.10;99.90
54431;DHT22;40342;52.998;5.862;2023-02-03T05:46:08;8.10;99.90
54431;DHT22;40342;52.998;5.862;2023-02-03T05:48:34;8.20;99.90
54431;DHT22;40342;52.998;5.862;2023-02-03T05:51:00;8.20;99.90
54431;DHT22;40342;52.998;5.862;2023-02-03T05:53:26;8.20;99.90
54431;DHT22;40342;52.998;5.862;2023-02-03T05:55:52;8.20;99.90
54431;DHT22;40342;52.998;5.862;2023-02-03T05:58:18;8.20;99.90
54431;DHT22;40342;52.998;5.862;2023-02-03T06:00:43;8.20;99.90
54431;DHT22;40342;52.998;5.862;2023-02-03T06:03:09;8.10;99.90
54431;DHT22;40342;52.998;5.862;2023-02-03T06:05:35;8.20;99.90
54431;DHT22;40342;52.998;5.862;2023-02-03T06:08:06;8.20;99.90
54431;DHT22;40342;52.998;5.862;2023-02-03T06:10:32;8.10;99.90
54431;DHT22;40342;52.998;5.862;2023-02-03T06:12:57;8.20;99.90
54431;DHT22;40342;52.998;5.862;2023-02-03T06:15:23;8.20;99.90
54431;DHT22;40342;52.998;5.862;2023-02-03T06:17:49;8.20;99.90
54431;DHT22;40342;52.998;5.862;2023-02-03T06:20:16;8.20;99.90
54431;DHT22;40342;52.998;5.862;2023-02-03T06:22:42;8.20;99.90
54431;DHT22;40342;52.998;5.862;2023-02-03T06:25:08;8.20;99.90
54431;DHT22;40342;52.998;5.862;2023-02-03T06:27:34;8.20;99.90
54431;DHT22;40342;52.998;5.862;2023-02-03T06:30:00;8.20;99.90
54431;DHT22;40342;52.998;5.862;2023-02-03T06:32:25;8.20;99.90
54431;DHT22;40342;52.998;5.862;2023-02-03T06:34:51;8.20;99.90
54431;DHT22;40342;52.998;5.862;2023-02-03T06:37:16;8.20;99.90
54431;DHT22;40342;52.998;5.862;2023-02-03T06:39:42;8.20;99.90
54431;DHT22;40342;52.998;5.862;2023-02-03T06:42:07;8.10;99.90
54431;DHT22;40342;52.998;5.862;2023-02-03T06:44:33;8.20;99.90
54431;DHT22;40342;52.998;5.862;2023-02-03T06:46:59;8.20;99.90
54431;DHT22;40342;52.998;5.862;2023-02-03T06:49:26;8.20;99.90
54431;DHT22;40342;52.998;5.862;2023-02-03T06:51:51;8.20;99.90
54431;DHT22;40342;52.998;5.862;2023-02-03T06:54:17;8.20;99.90
54431;DHT22;40342;52.998;5.862;2023-02-03T06:56:43;8.20;99.90
54431;DHT22;40342;52.998;5.862;2023-02-03T06:59:08;8.20;99.90
54431;DHT22;40342;52.998;5.862;2023-02-03T07:01:37;8.20;99.90
54431;DHT22;40342;52.998;5.862;2023-02-03T07:04:03;8.20;99.90
54431;DHT22;40342;52.998;5.862;2023-02-03T07:06:30;8.10;99.90
54431;DHT22;40342;52.998;5.862;2023-02-03T07:08:59;8.10;99.90
54431;DHT22;40342;52.998;5.862;2023-02-03T07:11:25;8.10;99.90
54431;DHT22;40342;52.998;5.862;2023-02-03T07:13:51;8.10;99.90
54431;DHT22;40342;52.998;5.862;2023-02-03T07:16:17;8.10;99.90
54431;DHT22;40342;52.998;5.862;2023-02-03T07:18:43;8.10;99.90
54431;DHT22;40342;52.998;5.862;2023-02-03T07:21:09;8.10;99.90
54431;DHT22;40342;52.998;5.862;2023-02-03T07:23:35;8.20;99.90
54431;DHT22;40342;52.998;5.862;2023-02-03T07:26:05;8.20;99.90
54431;DHT22;40342;52.998;5.862;2023-02-03T07:28:31;8.20;99.90
54431;DHT22;40342;52.998;5.862;2023-02-03T07:30:57;8.20;99.90
54431;DHT22;40342;52.998;5.862;2023-02-03T07:33:23;8.20;99.90
54431;DHT22;40342;52.998;5.862;2023-02-03T07:35:55;8.20;99.90
54431;DHT22;40342;52.998;5.862;2023-02-03T07:38:22;8.20;99.90
54431;DHT22;40342;52.998;5.862;2023-02-03T07:40:48;8.20;99.90
54431;DHT22;40342;52.998;5.862;2023-02-03T07:43:14;8.20;99.90
54431;DHT22;40342;52.998;5.862;2023-02-03T07:45:40;8.20;99.90
54431;DHT22;40342;52.998;5.862;2023-02-03T07:48:05;8.20;99.90
54431;DHT22;40342;52.998;5.862;2023-02-03T07:50:31;8.20;99.90
54431;DHT22;40342;52.998;5.862;2023-02-03T07:53:00;8.20;99.90
54431;DHT22;40342;52.998;5.862;2023-02-03T07:55:26;8.20;99.90
54431;DHT22;40342;52.998;5.862;2023-02-03T07:57:54;8.20;99.90
54431;DHT22;40342;52.998;5.862;2023-02-03T08:00:20;8.20;99.90
54431;DHT22;40342;52.998;5.862;2023-02-03T08:02:45;8.30;99.90
54431;DHT22;40342;52.998;5.862;2023-02-03T08:05:12;8.20;99.90
54431;DHT22;40342;52.998;5.862;2023-02-03T08:07:38;8.30;99.90
54431;DHT22;40342;52.998;5.862;2023-02-03T08:10:04;8.30;99.90
54431;DHT22;40342;52.998;5.862;2023-02-03T08:12:30;8.30;99.90
54431;DHT22;40342;52.998;5.862;2023-02-03T08:14:55;8.20;99.90
54431;DHT22;40342;52.998;5.862;2023-02-03T08:17:21;8.30;99.90
54431;DHT22;40342;52.998;5.862;2023-02-03T08:19:46;8.30;99.90
54431;DHT22;40342;52.998;5.862;2023-02-03T08:22:12;8.30;99.90
54431;DHT22;40342;52.998;5.862;2023-02-03T08:24:45;8.30;99.90
54431;DHT22;40342;52.998;5.862;2023-02-03T08:27:12;8.30;99.90
54431;DHT22;40342;52.998;5.862;2023-02-03T08:29:38;8.40;99.90
54431;DHT22;40342;52.998;5.862;2023-02-03T08:32:03;8.40;99.90
54431;DHT22;40342;52.998;5.862;2023-02-03T08:34:29;8.50;99.90
54431;DHT22;40342;52.998;5.862;2023-02-03T08:36:55;8.50;99.90
54431;DHT22;40342;52.998;5.862;2023-02-03T08:39:20;8.50;99.90
54431;DHT22;40342;52.998;5.862;2023-02-03T08:41:46;8.50;99.90
54431;DHT22;40342;52.998;5.862;2023-02-03T08:44:12;8.50;99.90
54431;DHT22;40342;52.998;5.862;2023-02-03T08:46:38;8.50;99.90
54431;DHT22;40342;52.998;5.862;2023-02-03T08:49:09;8.50;99.90
54431;DHT22;40342;52.998;5.862;2023-02-03T08:51:34;8.50;99.90
54431;DHT22;40342;52.998;5.862;2023-02-03T08:54:00;8.50;99.90
54431;DHT22;40342;52.998;5.862;2023-02-03T08:56:26;8.50;99.90
54431;DHT22;40342;52.998;5.862;2023-02-03T08:58:52;8.70;99.90
54431;DHT22;40342;52.998;5.862;2023-02-03T09:01:17;8.50;99.90
54431;DHT22;40342;52.998;5.862;2023-02-03T09:03:43;8.40;99.90
54431;DHT22;40342;52.998;5.862;2023-02-03T09:06:09;8.40;99.90
54431;DHT22;40342;52.998;5.862;2023-02-03T09:08:37;8.40;99.90
54431;DHT22;40342;52.998;5.862;2023-02-03T09:11:08;8.40;99.90
54431;DHT22;40342;52.998;5.862;2023-02-03T09:13:34;8.40;99.90
54431;DHT22;40342;52.998;5.862;2023-02-03T09:16:00;8.30;99.90
54431;DHT22;40342;52.998;5.862;2023-02-03T09:18:25;8.40;99.90
54431;DHT22;40342;52.998;5.862;2023-02-03T09:20:51;8.40;99.90
54431;DHT22;40342;52.998;5.862;2023-02-03T09:23:16;8.40;99.90
54431;DHT22;40342;52.998;5.862;2023-02-03T09:25:42;8.40;99.90
54431;DHT22;40342;52.998;5.862;2023-02-03T09:28:07;8.40;99.90
54431;DHT22;40342;52.998;5.862;2023-02-03T09:30:33;8.40;99.90
54431;DHT22;40342;52.998;5.862;2023-02-03T09:32:58;8.40;99.90
54431;DHT22;40342;52.998;5.862;2023-02-03T09:35:24;8.40;99.90
54431;DHT22;40342;52.998;5.862;2023-02-03T09:37:51;8.40;99.90
54431;DHT22;40342;52.998;5.862;2023-02-03T09:40:21;8.40;99.90
54431;DHT22;40342;52.998;5.862;2023-02-03T09:43:03;8.40;99.90
54431;DHT22;40342;52.998;5.862;2023-02-03T09:45:31;8.40;99.90
54431;DHT22;40342;52.998;5.862;2023-02-03T09:48:14;8.40;99.90
54431;DHT22;40342;52.998;5.862;2023-02-03T09:50:42;8.50;99.90
54431;DHT22;40342;52.998;5.862;2023-02-03T09:53:30;8.50;99.90
54431;DHT22;40342;52.998;5.862;2023-02-03T09:55:57;8.50;99.90
54431;DHT22;40342;52.998;5.862;2023-02-03T09:58:25;8.50;99.90
54431;DHT22;40342;52.998;5.862;2023-02-03T10:00:59;8.50;99.90
54431;DHT22;40342;52.998;5.862;2023-02-03T10:03:51;8.60;99.90
54431;DHT22;40342;52.998;5.862;2023-02-03T10:11:37;8.60;99.90
54431;DHT22;40342;52.998;5.862;2023-02-03T10:17:08;8.60;99.90
54431;DHT22;40342;52.998;5.862;2023-02-03T10:19:43;8.60;99.90
54431;DHT22;40342;52.998;5.862;2023-02-03T10:22:15;8.60;99.90
54431;DHT22;40342;52.998;5.862;2023-02-03T10:27:21;8.70;99.90
54431;DHT22;40342;52.998;5.862;2023-02-03T10:32:43;8.70;99.90
54431;DHT22;40342;52.998;5.862;2023-02-03T10:35:18;8.70;99.90
54431;DHT22;40342;52.998;5.862;2023-02-03T10:37:48;8.80;99.90
54431;DHT22;40342;52.998;5.862;2023-02-03T10:40:15;8.80;99.90
54431;DHT22;40342;52.998;5.862;2023-02-03T10:42:46;8.80;99.90
54431;DHT22;40342;52.998;5.862;2023-02-03T10:45:35;8.80;99.90
54431;DHT22;40342;52.998;5.862;2023-02-03T10:48:02;8.80;99.90
54431;DHT22;40342;52.998;5.862;2023-02-03T10:50:28;8.80;99.90
54431;DHT22;40342;52.998;5.862;2023-02-03T10:53:20;8.80;99.90
54431;DHT22;40342;52.998;5.862;2023-02-03T10:55:59;8.80;99.90
54431;DHT22;40342;52.998;5.862;2023-02-03T10:58:27;8.80;99.90
54431;DHT22;40342;52.998;5.862;2023-02-03T11:01:11;8.80;99.90
54431;DHT22;40342;52.998;5.862;2023-02-03T11:03:38;8.80;99.90
54431;DHT22;40342;52.998;5.862;2023-02-03T11:08:31;8.80;99.90
54431;DHT22;40342;52.998;5.862;2023-02-03T11:11:06;8.80;99.90
54431;DHT22;40342;52.998;5.862;2023-02-03T11:13:32;8.80;99.90
54431;DHT22;40342;52.998;5.862;2023-02-03T11:16:13;8.80;99.90
54431;DHT22;40342;52.998;5.862;2023-02-03T11:18:41;8.80;99.90
54431;DHT22;40342;52.998;5.862;2023-02-03T11:21:11;8.90;99.90
54431;DHT22;40342;52.998;5.862;2023-02-03T11:23:44;8.90;99.90
54431;DHT22;40342;52.998;5.862;2023-02-03T11:26:17;8.80;99.90
54431;DHT22;40342;52.998;5.862;2023-02-03T11:28:45;8.80;99.90
54431;DHT22;40342;52.998;5.862;2023-02-03T11:31:20;8.80;99.90
54431;DHT22;40342;52.998;5.862;2023-02-03T11:34:09;8.80;99.90
54431;DHT22;40342;52.998;5.862;2023-02-03T11:36:39;8.80;99.90
54431;DHT22;40342;52.998;5.862;2023-02-03T11:39:25;8.80;99.90
54431;DHT22;40342;52.998;5.862;2023-02-03T11:41:53;8.80;99.90
54431;DHT22;40342;52.998;5.862;2023-02-03T11:44:27;8.80;99.90
54431;DHT22;40342;52.998;5.862;2023-02-03T11:47:06;8.80;99.90
54431;DHT22;40342;52.998;5.862;2023-02-03T11:57:35;8.80;99.90
54431;DHT22;40342;52.998;5.862;2023-02-03T12:00:32;8.70;99.90
54431;DHT22;40342;52.998;5.862;2023-02-03T12:16:31;8.70;99.90
54431;DHT22;40342;52.998;5.862;2023-02-03T12:21:44;8.60;99.90
54431;DHT22;40342;52.998;5.862;2023-02-03T12:24:40;8.70;99.90
54431;DHT22;40342;52.998;5.862;2023-02-03T12:32:52;8.60;99.90
54431;DHT22;40342;52.998;5.862;2023-02-03T12:35:55;8.60;99.90
54431;DHT22;40342;52.998;5.862;2023-02-03T12:38:34;8.60;99.90
54431;DHT22;40342;52.998;5.862;2023-02-03T12:41:12;8.60;99.90
54431;DHT22;40342;52.998;5.862;2023-02-03T12:43:43;8.60;99.90
54431;DHT22;40342;52.998;5.862;2023-02-03T12:46:41;8.60;99.90
54431;DHT22;40342;52.998;5.862;2023-02-03T12:49:30;8.60;99.90
54431;DHT22;40342;52.998;5.862;2023-02-03T12:52:04;8.60;99.90
54431;DHT22;40342;52.998;5.862;2023-02-03T12:54:48;8.50;99.90
54431;DHT22;40342;52.998;5.862;2023-02-03T13:03:27;8.60;99.90
54431;DHT22;40342;52.998;5.862;2023-02-03T13:06:13;8.30;99.90
54431;DHT22;40342;52.998;5.862;2023-02-03T13:14:51;8.60;99.90
54431;DHT22;40342;52.998;5.862;2023-02-03T13:19:56;8.60;99.90
54431;DHT22;40342;52.998;5.862;2023-02-03T13:22:23;8.60;99.90
54431;DHT22;40342;52.998;5.862;2023-02-03T13:27:35;8.50;99.90
54431;DHT22;40342;52.998;5.862;2023-02-03T13:33:03;8.40;99.90
54431;DHT22;40342;52.998;5.862;2023-02-03T13:35:57;8.40;99.90
54431;DHT22;40342;52.998;5.862;2023-02-03T13:40:58;8.50;99.90
54431;DHT22;40342;52.998;5.862;2023-02-03T13:43:33;8.40;99.90
54431;DHT22;40342;52.998;5.862;2023-02-03T13:46:00;8.40;99.90
54431;DHT22;40342;52.998;5.862;2023-02-03T13:48:29;8.40;99.90
54431;DHT22;40342;52.998;5.862;2023-02-03T13:51:11;8.40;99.90
54431;DHT22;40342;52.998;5.862;2023-02-03T13:53:39;8.40;99.90
54431;DHT22;40342;52.998;5.862;2023-02-03T13:56:15;8.40;99.90
54431;DHT22;40342;52.998;5.862;2023-02-03T13:58:42;8.30;99.90
54431;DHT22;40342;52.998;5.862;2023-02-03T14:03:55;8.30;99.90
54431;DHT22;40342;52.998;5.862;2023-02-03T14:22:52;8.30;99.90
54431;DHT22;40342;52.998;5.862;2023-02-03T14:25:19;8.30;99.90
54431;DHT22;40342;52.998;5.862;2023-02-03T14:27:47;8.30;99.90
54431;DHT22;40342;52.998;5.862;2023-02-03T14:30:23;8.30;99.90
54431;DHT22;40342;52.998;5.862;2023-02-03T14:35:22;8.30;99.90
54431;DHT22;40342;52.998;5.862;2023-02-03T14:37:56;8.30;99.90
54431;DHT22;40342;52.998;5.862;2023-02-03T14:40:52;8.20;99.90
54431;DHT22;40342;52.998;5.862;2023-02-03T14:43:33;8.30;99.90
54431;DHT22;40342;52.998;5.862;2023-02-03T14:51:46;8.20;99.90
54431;DHT22;40342;52.998;5.862;2023-02-03T14:59:47;8.10;99.90
54431;DHT22;40342;52.998;5.862;2023-02-03T15:02:19;8.10;99.90
54431;DHT22;40342;52.998;5.862;2023-02-03T15:04:46;8.10;99.90
54431;DHT22;40342;52.998;5.862;2023-02-03T15:10:02;8.10;99.90
54431;DHT22;40342;52.998;5.862;2023-02-03T15:12:34;8.00;99.90
54431;DHT22;40342;52.998;5.862;2023-02-03T15:15:30;8.10;99.90
54431;DHT22;40342;52.998;5.862;2023-02-03T15:17:58;8.00;99.90
54431;DHT22;40342;52.998;5.862;2023-02-03T15:20:33;8.00;99.90
54431;DHT22;40342;52.998;5.862;2023-02-03T15:23:01;8.00;99.90
54431;DHT22;40342;52.998;5.862;2023-02-03T15:25:29;8.00;99.90
54431;DHT22;40342;52.998;5.862;2023-02-03T15:28:09;8.00;99.90
54431;DHT22;40342;52.998;5.862;2023-02-03T15:30:35;8.00;99.90
54431;DHT22;40342;52.998;5.862;2023-02-03T15:33:05;7.90;99.90
54431;DHT22;40342;52.998;5.862;2023-02-03T15:35:33;7.90;99.90
54431;DHT22;40342;52.998;5.862;2023-02-03T15:38:12;7.90;99.90
54431;DHT22;40342;52.998;5.862;2023-02-03T15:40:46;7.90;99.90
54431;DHT22;40342;52.998;5.862;2023-02-03T15:43:23;7.90;99.90
54431;DHT22;40342;52.998;5.862;2023-02-03T15:54:01;7.90;99.90
54431;DHT22;40342;52.998;5.862;2023-02-03T15:59:20;7.80;99.90
54431;DHT22;40342;52.998;5.862;2023-02-03T16:01:47;7.80;99.90
54431;DHT22;40342;52.998;5.862;2023-02-03T16:04:13;7.80;99.90
54431;DHT22;40342;52.998;5.862;2023-02-03T16:06:39;7.70;99.90
54431;DHT22;40342;52.998;5.862;2023-02-03T16:09:30;7.70;99.90
54431;DHT22;40342;52.998;5.862;2023-02-03T16:12:32;7.70;99.90
54431;DHT22;40342;52.998;5.862;2023-02-03T16:14:59;7.70;99.90
54431;DHT22;40342;52.998;5.862;2023-02-03T16:22:39;7.60;99.90
54431;DHT22;40342;52.998;5.862;2023-02-03T16:25:13;7.50;99.90
54431;DHT22;40342;52.998;5.862;2023-02-03T16:27:39;7.40;99.90
54431;DHT22;40342;52.998;5.862;2023-02-03T16:33:12;7.30;99.90
54431;DHT22;40342;52.998;5.862;2023-02-03T16:36:01;7.30;99.90
54431;DHT22;40342;52.998;5.862;2023-02-03T16:38:49;7.20;99.90
54431;DHT22;40342;52.998;5.862;2023-02-03T16:41:34;7.20;99.90
54431;DHT22;40342;52.998;5.862;2023-02-03T16:44:19;7.20;99.90
54431;DHT22;40342;52.998;5.862;2023-02-03T16:47:25;7.20;99.90
54431;DHT22;40342;52.998;5.862;2023-02-03T16:50:15;7.20;99.90
54431;DHT22;40342;52.998;5.862;2023-02-03T16:52:59;7.20;99.90
54431;DHT22;40342;52.998;5.862;2023-02-03T16:55:25;7.10;99.90
54431;DHT22;40342;52.998;5.862;2023-02-03T16:57:51;7.20;99.90
54431;DHT22;40342;52.998;5.862;2023-02-03T17:00:17;7.20;99.90
54431;DHT22;40342;52.998;5.862;2023-02-03T17:02:44;7.10;99.90
54431;DHT22;40342;52.998;5.862;2023-02-03T17:05:10;7.10;99.90
54431;DHT22;40342;52.998;5.862;2023-02-03T17:07:36;7.10;99.90
54431;DHT22;40342;52.998;5.862;2023-02-03T17:10:01;7.00;99.90
54431;DHT22;40342;52.998;5.862;2023-02-03T17:12:27;7.00;99.90
54431;DHT22;40342;52.998;5.862;2023-02-03T17:14:55;7.00;99.90
54431;DHT22;40342;52.998;5.862;2023-02-03T17:17:21;7.00;99.90
54431;DHT22;40342;52.998;5.862;2023-02-03T17:19:47;7.00;99.90
54431;DHT22;40342;52.998;5.862;2023-02-03T17:22:12;6.90;99.90
54431;DHT22;40342;52.998;5.862;2023-02-03T17:24:38;6.90;99.90
54431;DHT22;40342;52.998;5.862;2023-02-03T17:27:04;6.90;99.90
54431;DHT22;40342;52.998;5.862;2023-02-03T17:29:29;6.90;99.90
54431;DHT22;40342;52.998;5.862;2023-02-03T17:31:55;6.90;99.90
54431;DHT22;40342;52.998;5.862;2023-02-03T17:34:20;6.90;99.90
54431;DHT22;40342;52.998;5.862;2023-02-03T17:36:46;6.90;99.90
54431;DHT22;40342;52.998;5.862;2023-02-03T17:39:12;6.90;99.90
54431;DHT22;40342;52.998;5.862;2023-02-03T17:41:37;6.90;99.90
54431;DHT22;40342;52.998;5.862;2023-02-03T17:44:03;6.90;99.90
54431;DHT22;40342;52.998;5.862;2023-02-03T17:46:28;6.90;99.90
54431;DHT22;40342;52.998;5.862;2023-02-03T17:48:55;6.90;99.90
54431;DHT22;40342;52.998;5.862;2023-02-03T17:51:22;6.90;99.90
54431;DHT22;40342;52.998;5.862;2023-02-03T17:53:51;6.90;99.90
54431;DHT22;40342;52.998;5.862;2023-02-03T17:56:19;6.90;99.90
54431;DHT22;40342;52.998;5.862;2023-02-03T17:58:45;6.90;99.90
54431;DHT22;40342;52.998;5.862;2023-02-03T18:01:20;6.90;99.90
54431;DHT22;40342;52.998;5.862;2023-02-03T18:03:47;6.90;99.90
54431;DHT22;40342;52.998;5.862;2023-02-03T18:06:15;6.90;99.90
54431;DHT22;40342;52.998;5.862;2023-02-03T18:08:41;6.90;99.90
54431;DHT22;40342;52.998;5.862;2023-02-03T18:11:07;6.90;99.90
54431;DHT22;40342;52.998;5.862;2023-02-03T18:13:39;6.90;99.90
54431;DHT22;40342;52.998;5.862;2023-02-03T18:16:08;6.90;99.90
54431;DHT22;40342;52.998;5.862;2023-02-03T18:18:34;6.90;99.90
54431;DHT22;40342;52.998;5.862;2023-02-03T18:21:04;6.90;99.90
54431;DHT22;40342;52.998;5.862;2023-02-03T18:23:31;6.90;99.90
54431;DHT22;40342;52.998;5.862;2023-02-03T18:25:57;7.00;99.90
54431;DHT22;40342;52.998;5.862;2023-02-03T18:28:23;7.00;99.90
54431;DHT22;40342;52.998;5.862;2023-02-03T18:30:49;7.00;99.90
54431;DHT22;40342;52.998;5.862;2023-02-03T18:33:16;7.00;99.90